createdAt,value
2019-03-05T00:00:49.879Z,992.52
2019-03-05T00:01:49.858Z,992.49
2019-03-05T00:02:49.835Z,992.66
2019-03-05T00:03:49.825Z,992.56
2019-03-05T00:04:49.792Z,992.49
2019-03-05T00:05:49.773Z,992.53
2019-03-05T00:06:49.753Z,992.45
2019-03-05T00:07:49.732Z,992.58
2019-03-05T00:08:49.707Z,992.62
2019-03-05T00:09:49.688Z,992.73
2019-03-05T00:10:49.672Z,992.51
2019-03-05T00:11:49.651Z,992.54
2019-03-05T00:12:49.634Z,992.70
2019-03-05T00:13:49.604Z,992.77
2019-03-05T00:14:49.587Z,992.74
2019-03-05T00:15:49.559Z,992.70
2019-03-05T00:16:49.540Z,992.71
2019-03-05T00:17:49.518Z,992.80
2019-03-05T00:18:49.499Z,992.76
2019-03-05T00:19:49.478Z,992.69
2019-03-05T00:20:49.460Z,992.65
2019-03-05T00:21:49.435Z,992.68
2019-03-05T00:22:49.412Z,992.75
2019-03-05T00:23:49.391Z,992.73
2019-03-05T00:24:49.371Z,992.77
2019-03-05T00:25:49.374Z,992.65
2019-03-05T00:26:49.326Z,992.77
2019-03-05T00:27:49.306Z,992.84
2019-03-05T00:28:49.290Z,992.89
2019-03-05T00:29:49.266Z,992.80
2019-03-05T00:30:49.240Z,992.85
2019-03-05T00:31:49.220Z,992.76
2019-03-05T00:32:49.202Z,992.83
2019-03-05T00:33:49.179Z,992.87
2019-03-05T00:34:49.157Z,992.81
2019-03-05T00:35:49.134Z,992.73
2019-03-05T00:36:49.115Z,992.98
2019-03-05T00:37:49.101Z,992.93
2019-03-05T00:38:49.071Z,993.03
2019-03-05T00:39:49.050Z,992.87
2019-03-05T00:40:49.032Z,992.97
2019-03-05T00:41:49.011Z,992.94
2019-03-05T00:42:49.000Z,992.95
2019-03-05T00:43:48.966Z,993.03
2019-03-05T00:44:48.946Z,993.03
2019-03-05T00:45:48.923Z,993.10
2019-03-05T00:46:48.904Z,992.90
2019-03-05T00:47:48.892Z,993.10
2019-03-05T00:48:48.860Z,993.08
2019-03-05T00:49:48.837Z,993.08
2019-03-05T00:50:48.817Z,993.01
2019-03-05T00:51:48.806Z,993.11
2019-03-05T00:52:48.781Z,993.05
2019-03-05T00:53:48.753Z,993.02
2019-03-05T00:54:48.732Z,993.12
2019-03-05T00:55:49.882Z,993.03
2019-03-05T00:56:48.696Z,993.07
2019-03-05T00:57:48.669Z,993.06
2019-03-05T00:58:48.654Z,993.12
2019-03-05T00:59:48.637Z,993.16
2019-03-05T01:00:48.608Z,993.16
2019-03-05T01:01:48.592Z,993.17
2019-03-05T01:02:48.570Z,993.13
2019-03-05T01:03:48.539Z,993.16
2019-03-05T01:04:48.520Z,993.21
2019-03-05T01:05:48.501Z,993.15
2019-03-05T01:06:48.480Z,993.24
2019-03-05T01:07:48.459Z,993.24
2019-03-05T01:08:48.436Z,993.16
2019-03-05T01:09:48.415Z,993.21
2019-03-05T01:10:48.398Z,993.23
2019-03-05T01:11:48.374Z,993.17
2019-03-05T01:12:48.354Z,993.44
2019-03-05T01:13:48.335Z,993.30
2019-03-05T01:14:48.311Z,993.29
2019-03-05T01:15:48.289Z,993.28
2019-03-05T01:16:48.273Z,993.29
2019-03-05T01:17:48.259Z,993.35
2019-03-05T01:18:48.225Z,993.27
2019-03-05T01:19:48.205Z,993.38
2019-03-05T01:20:48.188Z,993.29
2019-03-05T01:21:48.165Z,993.28
2019-03-05T01:22:48.150Z,993.48
2019-03-05T01:23:48.124Z,993.39
2019-03-05T01:24:48.102Z,993.30
2019-03-05T01:25:48.082Z,993.39
2019-03-05T01:26:48.063Z,993.28
2019-03-05T01:27:48.034Z,993.33
2019-03-05T01:28:48.014Z,993.36
2019-03-05T01:29:47.991Z,993.27
2019-03-05T01:30:47.973Z,993.39
2019-03-05T01:31:47.949Z,993.42
2019-03-05T01:32:47.929Z,993.41
2019-03-05T01:33:47.908Z,993.51
2019-03-05T01:34:47.887Z,993.57
2019-03-05T01:35:47.867Z,993.43
2019-03-05T01:36:47.846Z,993.37
2019-03-05T01:37:47.825Z,993.49
2019-03-05T01:38:47.804Z,993.46
2019-03-05T01:39:47.787Z,993.52
2019-03-05T01:40:47.761Z,993.60
2019-03-05T01:41:47.738Z,993.45
2019-03-05T01:42:47.726Z,993.40
2019-03-05T01:43:47.698Z,993.41
2019-03-05T01:44:47.675Z,993.40
2019-03-05T01:45:47.655Z,993.42
2019-03-05T01:46:47.637Z,993.52
2019-03-05T01:47:47.610Z,993.43
2019-03-05T01:48:47.593Z,993.40
2019-03-05T01:49:47.570Z,993.47
2019-03-05T01:50:47.550Z,993.48
2019-03-05T01:51:47.528Z,993.46
2019-03-05T01:52:47.506Z,993.47
2019-03-05T01:53:47.489Z,993.49
2019-03-05T01:54:47.464Z,993.52
2019-03-05T01:55:47.443Z,993.47
2019-03-05T01:56:47.431Z,993.52
2019-03-05T01:57:47.408Z,993.55
2019-03-05T01:58:47.379Z,993.57
2019-03-05T01:59:47.359Z,993.47
2019-03-05T02:00:47.336Z,993.67
2019-03-05T02:01:47.323Z,993.62
2019-03-05T02:02:47.301Z,993.62
2019-03-05T02:03:47.276Z,993.51
2019-03-05T02:04:47.255Z,993.58
2019-03-05T02:05:47.247Z,993.52
2019-03-05T02:06:47.210Z,993.63
2019-03-05T02:07:47.189Z,993.60
2019-03-05T02:08:47.170Z,993.69
2019-03-05T02:09:47.150Z,993.69
2019-03-05T02:10:47.126Z,993.70
2019-03-05T02:11:47.111Z,993.56
2019-03-05T02:12:47.083Z,993.58
2019-03-05T02:13:47.063Z,993.53
2019-03-05T02:14:47.041Z,993.53
2019-03-05T02:15:47.019Z,993.64
2019-03-05T02:16:47.004Z,993.78
2019-03-05T02:17:46.977Z,993.59
2019-03-05T02:18:46.961Z,993.62
2019-03-05T02:19:46.936Z,993.68
2019-03-05T02:20:46.916Z,993.64
2019-03-05T02:21:46.896Z,993.65
2019-03-05T02:22:46.875Z,993.60
2019-03-05T02:23:46.850Z,993.61
2019-03-05T02:24:46.828Z,993.59
2019-03-05T02:25:46.812Z,993.61
2019-03-05T02:26:46.788Z,993.61
2019-03-05T02:27:46.765Z,993.60
2019-03-05T02:28:46.748Z,993.57
2019-03-05T02:29:46.729Z,993.59
2019-03-05T02:30:46.702Z,993.66
2019-03-05T02:31:46.683Z,993.63
2019-03-05T02:32:46.662Z,993.64
2019-03-05T02:33:46.637Z,993.63
2019-03-05T02:34:46.616Z,993.59
2019-03-05T02:35:46.599Z,993.66
2019-03-05T02:36:46.577Z,993.62
2019-03-05T02:37:46.556Z,993.76
2019-03-05T02:38:46.533Z,993.72
2019-03-05T02:39:46.523Z,993.67
2019-03-05T02:40:46.493Z,993.55
2019-03-05T02:41:46.471Z,993.71
2019-03-05T02:42:46.448Z,993.79
2019-03-05T02:43:46.434Z,993.61
2019-03-05T02:44:46.409Z,993.73
2019-03-05T02:45:46.392Z,993.58
2019-03-05T02:46:46.373Z,993.56
2019-03-05T02:47:46.345Z,993.68
2019-03-05T02:48:46.323Z,993.75
2019-03-05T02:49:46.304Z,993.85
2019-03-05T02:50:46.280Z,993.55
2019-03-05T02:51:46.261Z,993.70
2019-03-05T02:52:46.241Z,993.53
2019-03-05T02:53:46.223Z,993.67
2019-03-05T02:54:46.197Z,993.58
2019-03-05T02:55:46.175Z,993.60
2019-03-05T02:56:46.159Z,993.57
2019-03-05T02:57:46.146Z,993.61
2019-03-05T02:58:46.117Z,993.58
2019-03-05T02:59:46.183Z,993.82
2019-03-05T03:00:46.075Z,993.77
2019-03-05T03:01:46.049Z,993.81
2019-03-05T03:02:46.037Z,993.66
2019-03-05T03:03:46.023Z,993.78
2019-03-05T03:04:45.988Z,993.80
2019-03-05T03:05:45.972Z,993.64
2019-03-05T03:06:45.944Z,993.74
2019-03-05T03:07:45.943Z,993.77
2019-03-05T03:08:45.902Z,993.74
2019-03-05T03:09:45.880Z,993.78
2019-03-05T03:10:45.859Z,993.72
2019-03-05T03:11:45.836Z,993.74
2019-03-05T03:12:45.821Z,993.70
2019-03-05T03:13:45.793Z,993.83
2019-03-05T03:14:45.775Z,993.80
2019-03-05T03:15:45.765Z,993.85
2019-03-05T03:16:45.734Z,993.84
2019-03-05T03:17:45.710Z,993.69
2019-03-05T03:18:45.688Z,993.86
2019-03-05T03:19:45.664Z,993.94
2019-03-05T03:20:45.644Z,993.94
2019-03-05T03:21:45.619Z,993.99
2019-03-05T03:22:45.601Z,994.00
2019-03-05T03:23:45.579Z,994.02
2019-03-05T03:24:45.556Z,994.01
2019-03-05T03:25:45.539Z,993.98
2019-03-05T03:26:45.579Z,994.00
2019-03-05T03:27:45.493Z,993.98
2019-03-05T03:28:45.476Z,994.14
2019-03-05T03:29:45.465Z,993.99
2019-03-05T03:30:45.435Z,994.13
2019-03-05T03:31:45.432Z,994.12
2019-03-05T03:32:45.409Z,994.20
2019-03-05T03:33:45.366Z,994.11
2019-03-05T03:34:45.401Z,994.18
2019-03-05T03:35:45.326Z,994.14
2019-03-05T03:36:45.304Z,994.20
2019-03-05T03:37:45.279Z,994.20
2019-03-05T03:38:45.258Z,994.13
2019-03-05T03:39:45.237Z,994.31
2019-03-05T03:40:45.224Z,994.27
2019-03-05T03:41:45.192Z,994.38
2019-03-05T03:42:45.171Z,994.31
2019-03-05T03:43:45.147Z,994.30
2019-03-05T03:44:45.128Z,994.38
2019-03-05T03:45:45.115Z,994.21
2019-03-05T03:46:45.083Z,994.28
2019-03-05T03:47:45.086Z,994.46
2019-03-05T03:48:45.045Z,994.18
2019-03-05T03:49:45.017Z,994.21
2019-03-05T03:50:44.997Z,994.29
2019-03-05T03:51:44.977Z,994.22
2019-03-05T03:52:44.959Z,994.24
2019-03-05T03:53:45.034Z,994.14
2019-03-05T03:54:44.909Z,994.18
2019-03-05T03:55:44.889Z,994.15
2019-03-05T03:56:44.871Z,994.20
2019-03-05T03:57:44.852Z,994.16
2019-03-05T03:58:44.832Z,994.26
2019-03-05T03:59:44.806Z,994.28
2019-03-05T04:00:44.782Z,994.23
2019-03-05T04:01:44.758Z,994.04
2019-03-05T04:02:44.744Z,994.19
2019-03-05T04:03:44.722Z,994.22
2019-03-05T04:04:44.697Z,994.31
2019-03-05T04:05:44.673Z,994.27
2019-03-05T04:06:44.660Z,994.37
2019-03-05T04:07:44.627Z,994.27
2019-03-05T04:08:44.605Z,994.35
2019-03-05T04:09:44.585Z,994.29
2019-03-05T04:10:44.558Z,994.29
2019-03-05T04:11:44.541Z,994.34
2019-03-05T04:12:44.521Z,994.30
2019-03-05T04:13:44.499Z,994.34
2019-03-05T04:14:44.477Z,994.27
2019-03-05T04:15:44.454Z,994.33
2019-03-05T04:16:44.427Z,994.34
2019-03-05T04:17:44.420Z,994.37
2019-03-05T04:18:44.408Z,994.45
2019-03-05T04:19:44.365Z,994.31
2019-03-05T04:20:44.427Z,994.46
2019-03-05T04:21:44.318Z,994.38
2019-03-05T04:22:44.301Z,994.42
2019-03-05T04:23:44.283Z,994.44
2019-03-05T04:24:44.252Z,994.41
2019-03-05T04:25:44.233Z,994.42
2019-03-05T04:26:44.208Z,994.37
2019-03-05T04:27:44.186Z,994.43
2019-03-05T04:28:44.175Z,994.44
2019-03-05T04:29:44.146Z,994.39
2019-03-05T04:30:44.120Z,994.52
2019-03-05T04:31:44.103Z,994.43
2019-03-05T04:32:44.079Z,994.39
2019-03-05T04:33:44.055Z,994.42
2019-03-05T04:34:44.038Z,994.40
2019-03-05T04:35:44.013Z,994.42
2019-03-05T04:36:43.989Z,994.47
2019-03-05T04:37:43.968Z,994.47
2019-03-05T04:38:43.945Z,994.50
2019-03-05T04:39:43.923Z,994.40
2019-03-05T04:40:43.913Z,994.44
2019-03-05T04:41:43.880Z,994.49
2019-03-05T04:42:43.877Z,994.45
2019-03-05T04:43:43.836Z,994.54
2019-03-05T04:44:43.825Z,994.41
2019-03-05T04:45:43.803Z,994.47
2019-03-05T04:46:43.774Z,994.50
2019-03-05T04:47:43.750Z,994.42
2019-03-05T04:48:43.728Z,994.51
2019-03-05T04:49:43.705Z,994.42
2019-03-05T04:50:43.689Z,994.54
2019-03-05T04:51:43.664Z,994.54
2019-03-05T04:52:43.643Z,994.44
2019-03-05T04:53:43.622Z,994.55
2019-03-05T04:54:43.602Z,994.57
2019-03-05T04:55:43.581Z,994.60
2019-03-05T04:56:43.556Z,994.42
2019-03-05T04:57:43.533Z,994.44
2019-03-05T04:58:43.511Z,994.44
2019-03-05T04:59:43.492Z,994.42
2019-03-05T05:00:43.470Z,994.46
2019-03-05T05:01:43.527Z,994.48
2019-03-05T05:02:43.424Z,994.48
2019-03-05T05:03:43.403Z,994.50
2019-03-05T05:04:43.383Z,994.48
2019-03-05T05:05:43.358Z,994.58
2019-03-05T05:06:43.336Z,994.54
2019-03-05T05:07:43.322Z,994.53
2019-03-05T05:08:43.297Z,994.63
2019-03-05T05:09:43.279Z,994.55
2019-03-05T05:10:43.251Z,994.58
2019-03-05T05:11:43.271Z,994.62
2019-03-05T05:12:43.211Z,994.58
2019-03-05T05:13:43.182Z,994.62
2019-03-05T05:14:43.160Z,994.53
2019-03-05T05:15:43.141Z,994.58
2019-03-05T05:16:43.127Z,994.65
2019-03-05T05:17:43.095Z,994.74
2019-03-05T05:18:43.077Z,994.64
2019-03-05T05:19:43.052Z,994.55
2019-03-05T05:20:43.049Z,994.60
2019-03-05T05:21:43.011Z,994.48
2019-03-05T05:22:42.988Z,994.57
2019-03-05T05:23:42.965Z,994.59
2019-03-05T05:24:42.948Z,994.62
2019-03-05T05:25:42.923Z,994.52
2019-03-05T05:26:42.903Z,994.52
2019-03-05T05:27:42.879Z,994.63
2019-03-05T05:28:42.856Z,994.61
2019-03-05T05:29:42.833Z,994.54
2019-03-05T05:30:42.813Z,994.84
2019-03-05T05:31:42.797Z,994.41
2019-03-05T05:32:42.775Z,994.50
2019-03-05T05:33:42.753Z,994.47
2019-03-05T05:34:42.729Z,994.51
2019-03-05T05:35:42.707Z,994.48
2019-03-05T05:36:42.689Z,994.49
2019-03-05T05:37:42.662Z,994.47
2019-03-05T05:38:42.643Z,994.60
2019-03-05T05:39:42.621Z,994.50
2019-03-05T05:40:42.597Z,994.52
2019-03-05T05:41:42.574Z,994.45
2019-03-05T05:42:42.551Z,994.55
2019-03-05T05:43:42.531Z,994.64
2019-03-05T05:44:42.511Z,994.42
2019-03-05T05:45:42.486Z,994.50
2019-03-05T05:46:42.467Z,994.56
2019-03-05T05:47:42.452Z,994.52
2019-03-05T05:48:42.421Z,994.65
2019-03-05T05:49:42.402Z,994.62
2019-03-05T05:50:42.379Z,994.60
2019-03-05T05:51:44.353Z,994.66
2019-03-05T05:52:42.334Z,994.64
2019-03-05T05:53:42.315Z,994.65
2019-03-05T05:54:42.289Z,994.69
2019-03-05T05:55:42.278Z,994.66
2019-03-05T05:56:42.247Z,994.74
2019-03-05T05:57:42.223Z,994.79
2019-03-05T05:58:42.203Z,994.69
2019-03-05T05:59:42.181Z,994.65
2019-03-05T06:00:42.163Z,994.64
2019-03-05T06:01:42.137Z,994.68
2019-03-05T06:02:42.117Z,994.87
2019-03-05T06:03:42.095Z,994.72
2019-03-05T06:04:42.076Z,994.58
2019-03-05T06:05:42.053Z,994.62
2019-03-05T06:06:42.028Z,994.62
2019-03-05T06:07:42.015Z,994.67
2019-03-05T06:08:41.985Z,994.58
2019-03-05T06:09:41.966Z,994.62
2019-03-05T06:10:41.944Z,994.65
2019-03-05T06:11:41.922Z,994.58
2019-03-05T06:12:41.897Z,994.65
2019-03-05T06:13:41.875Z,994.57
2019-03-05T06:14:41.854Z,994.68
2019-03-05T06:15:41.832Z,994.74
2019-03-05T06:16:41.815Z,994.72
2019-03-05T06:17:41.796Z,994.76
2019-03-05T06:18:41.773Z,994.78
2019-03-05T06:19:41.745Z,994.74
2019-03-05T06:20:42.821Z,994.83
2019-03-05T06:21:41.706Z,994.83
2019-03-05T06:22:41.703Z,994.78
2019-03-05T06:23:41.656Z,994.77
2019-03-05T06:24:41.638Z,994.75
2019-03-05T06:25:41.643Z,994.75
2019-03-05T06:26:41.594Z,994.67
2019-03-05T06:27:41.587Z,994.72
2019-03-05T06:28:41.565Z,994.80
2019-03-05T06:29:41.527Z,994.80
2019-03-05T06:30:41.506Z,994.84
2019-03-05T06:31:41.488Z,994.88
2019-03-05T06:32:41.463Z,994.92
2019-03-05T06:33:41.455Z,994.83
2019-03-05T06:34:41.423Z,994.85
2019-03-05T06:35:41.401Z,994.89
2019-03-05T06:36:41.379Z,994.92
2019-03-05T06:37:41.363Z,994.99
2019-03-05T06:38:41.334Z,994.97
2019-03-05T06:39:41.312Z,994.79
2019-03-05T06:40:41.308Z,994.90
2019-03-05T06:41:41.277Z,994.78
2019-03-05T06:42:41.252Z,994.97
2019-03-05T06:43:41.230Z,994.90
2019-03-05T06:44:41.211Z,994.88
2019-03-05T06:45:41.186Z,994.92
2019-03-05T06:46:41.164Z,994.95
2019-03-05T06:47:41.150Z,994.94
2019-03-05T06:48:41.121Z,994.92
2019-03-05T06:49:41.099Z,994.91
2019-03-05T06:50:41.090Z,994.95
2019-03-05T06:51:41.054Z,994.98
2019-03-05T06:52:41.037Z,994.91
2019-03-05T06:53:41.015Z,994.86
2019-03-05T06:54:40.995Z,994.84
2019-03-05T06:55:40.970Z,994.92
2019-03-05T06:56:40.946Z,994.97
2019-03-05T06:57:40.927Z,995.01
2019-03-05T06:58:40.905Z,995.02
2019-03-05T06:59:40.882Z,995.10
2019-03-05T07:00:40.867Z,995.11
2019-03-05T07:01:40.839Z,995.11
2019-03-05T07:02:40.837Z,995.13
2019-03-05T07:03:40.795Z,995.13
2019-03-05T07:04:40.779Z,995.28
2019-03-05T07:05:40.752Z,995.33
2019-03-05T07:06:40.730Z,995.31
2019-03-05T07:07:40.709Z,995.24
2019-03-05T07:08:40.690Z,995.18
2019-03-05T07:09:40.672Z,995.36
2019-03-05T07:10:40.646Z,995.29
2019-03-05T07:11:40.623Z,995.33
2019-03-05T07:12:40.604Z,995.37
2019-03-05T07:13:40.583Z,995.36
2019-03-05T07:14:40.574Z,995.30
2019-03-05T07:15:40.545Z,995.31
2019-03-05T07:16:40.527Z,995.29
2019-03-05T07:17:40.493Z,995.30
2019-03-05T07:18:40.474Z,995.34
2019-03-05T07:19:40.451Z,995.40
2019-03-05T07:20:40.428Z,995.44
2019-03-05T07:21:40.423Z,995.37
2019-03-05T07:22:40.386Z,995.35
2019-03-05T07:23:43.012Z,995.35
2019-03-05T07:24:40.353Z,995.38
2019-03-05T07:25:40.321Z,995.45
2019-03-05T07:26:40.305Z,995.41
2019-03-05T07:27:40.279Z,995.38
2019-03-05T07:28:40.257Z,995.40
2019-03-05T07:29:40.239Z,995.47
2019-03-05T07:30:40.216Z,995.58
2019-03-05T07:31:40.213Z,995.50
2019-03-05T07:32:40.174Z,995.47
2019-03-05T07:33:40.154Z,995.51
2019-03-05T07:34:40.131Z,995.50
2019-03-05T07:35:40.140Z,995.50
2019-03-05T07:36:40.094Z,995.58
2019-03-05T07:37:40.078Z,995.57
2019-03-05T07:38:40.051Z,995.63
2019-03-05T07:39:40.030Z,995.78
2019-03-05T07:40:40.017Z,995.77
2019-03-05T07:41:39.991Z,995.73
2019-03-05T07:42:39.970Z,995.72
2019-03-05T07:43:39.950Z,995.69
2019-03-05T07:44:39.935Z,995.66
2019-03-05T07:45:39.919Z,995.76
2019-03-05T07:46:39.895Z,995.82
2019-03-05T07:47:39.876Z,995.87
2019-03-05T07:48:39.861Z,995.92
2019-03-05T07:49:43.887Z,995.83
2019-03-05T07:50:39.827Z,995.93
2019-03-05T07:51:39.804Z,995.95
2019-03-05T07:52:39.789Z,995.89
2019-03-05T07:53:39.763Z,995.97
2019-03-05T07:54:39.747Z,996.09
2019-03-05T07:55:39.738Z,996.05
2019-03-05T07:56:39.719Z,996.18
2019-03-05T07:57:39.695Z,996.35
2019-03-05T07:58:39.685Z,995.99
2019-03-05T07:59:39.670Z,996.01
2019-03-05T08:00:39.655Z,995.98
2019-03-05T08:01:39.639Z,995.90
2019-03-05T08:02:39.620Z,995.95
2019-03-05T08:03:39.607Z,995.99
2019-03-05T08:04:39.581Z,996.21
2019-03-05T08:05:39.560Z,996.26
2019-03-05T08:06:39.558Z,996.40
2019-03-05T08:07:39.530Z,996.26
2019-03-05T08:08:39.512Z,996.19
2019-03-05T08:09:39.497Z,996.51
2019-03-05T08:10:39.480Z,996.68
2019-03-05T08:11:39.473Z,996.60
2019-03-05T08:12:39.459Z,996.29
2019-03-05T08:13:39.438Z,996.21
2019-03-05T08:14:39.432Z,996.21
2019-03-05T08:15:39.419Z,996.28
2019-03-05T08:16:39.395Z,996.30
2019-03-05T08:17:39.382Z,996.26
2019-03-05T08:18:39.374Z,996.35
2019-03-05T08:19:39.351Z,996.13
2019-03-05T08:20:39.336Z,996.11
2019-03-05T08:21:39.324Z,996.25
2019-03-05T08:22:39.315Z,996.31
2019-03-05T08:23:39.287Z,996.24
2019-03-05T08:24:39.275Z,996.22
2019-03-05T08:25:39.255Z,996.21
2019-03-05T08:26:39.235Z,996.21
2019-03-05T08:27:39.221Z,996.21
2019-03-05T08:28:39.202Z,996.27
2019-03-05T08:29:39.188Z,996.26
2019-03-05T08:30:39.167Z,996.25
2019-03-05T08:31:39.147Z,996.24
2019-03-05T08:32:39.133Z,996.31
2019-03-05T08:33:39.110Z,996.23
2019-03-05T08:34:39.091Z,996.39
2019-03-05T08:35:39.073Z,996.34
2019-03-05T08:36:39.054Z,996.41
2019-03-05T08:37:39.034Z,996.41
2019-03-05T08:38:39.021Z,996.37
2019-03-05T08:39:39.005Z,996.42
2019-03-05T08:40:38.980Z,996.43
2019-03-05T08:41:38.960Z,996.41
2019-03-05T08:42:38.944Z,996.42
2019-03-05T08:43:38.921Z,996.44
2019-03-05T08:44:49.679Z,996.50
2019-03-05T08:45:38.881Z,996.56
2019-03-05T08:46:38.868Z,996.49
2019-03-05T08:47:38.846Z,996.54
2019-03-05T08:48:38.832Z,996.61
2019-03-05T08:49:38.887Z,996.63
2019-03-05T08:50:38.789Z,996.73
2019-03-05T08:51:38.762Z,996.72
2019-03-05T08:52:38.744Z,996.63
2019-03-05T08:53:48.988Z,996.60
2019-03-05T08:54:38.702Z,996.70
2019-03-05T08:55:38.684Z,996.65
2019-03-05T08:56:38.664Z,996.71
2019-03-05T08:57:38.640Z,996.65
2019-03-05T08:58:38.625Z,996.69
2019-03-05T08:59:38.616Z,996.70
2019-03-05T09:00:38.588Z,996.70
2019-03-05T09:01:38.565Z,996.72
2019-03-05T09:02:48.058Z,996.79
2019-03-05T09:03:38.524Z,996.83
2019-03-05T09:04:38.499Z,996.78
2019-03-05T09:05:38.482Z,996.76
2019-03-05T09:06:38.458Z,996.80
2019-03-05T09:07:38.438Z,996.95
2019-03-05T09:08:38.632Z,996.85
2019-03-05T09:09:38.402Z,996.88
2019-03-05T09:10:38.379Z,996.88
2019-03-05T09:11:38.359Z,996.95
2019-03-05T09:12:38.332Z,996.88
2019-03-05T09:13:38.311Z,997.02
2019-03-05T09:14:38.295Z,997.01
2019-03-05T09:15:38.280Z,997.27
2019-03-05T09:16:38.256Z,997.05
2019-03-05T09:17:38.235Z,997.23
2019-03-05T09:18:38.214Z,997.06
2019-03-05T09:19:38.198Z,997.21
2019-03-05T09:20:38.177Z,997.38
2019-03-05T09:21:38.157Z,997.17
2019-03-05T09:22:38.143Z,997.56
2019-03-05T09:23:38.131Z,997.26
2019-03-05T09:24:38.108Z,997.12
2019-03-05T09:25:38.086Z,997.03
2019-03-05T09:26:38.078Z,997.14
2019-03-05T09:27:38.050Z,997.19
2019-03-05T09:28:38.037Z,997.79
2019-03-05T09:29:38.015Z,997.14
2019-03-05T09:30:37.996Z,997.14
2019-03-05T09:31:37.981Z,997.09
2019-03-05T09:32:37.966Z,997.11
2019-03-05T09:33:37.937Z,997.11
2019-03-05T09:34:37.927Z,997.04
2019-03-05T09:35:37.902Z,997.08
2019-03-05T09:36:37.884Z,997.16
2019-03-05T09:37:37.863Z,997.11
2019-03-05T09:38:37.844Z,997.23
2019-03-05T09:39:37.831Z,997.09
2019-03-05T09:40:37.808Z,997.13
2019-03-05T09:41:37.789Z,997.15
2019-03-05T09:42:40.182Z,997.20
2019-03-05T09:43:37.749Z,997.16
2019-03-05T09:44:37.738Z,997.26
2019-03-05T09:45:37.710Z,997.17
2019-03-05T09:46:37.692Z,997.14
2019-03-05T09:47:37.674Z,997.14
2019-03-05T09:48:37.661Z,997.24
2019-03-05T09:49:37.631Z,997.28
2019-03-05T09:50:37.614Z,997.18
2019-03-05T09:51:37.596Z,997.21
2019-03-05T09:52:37.582Z,997.23
2019-03-05T09:53:37.561Z,997.29
2019-03-05T09:54:37.536Z,997.29
2019-03-05T09:55:37.520Z,997.24
2019-03-05T09:56:37.498Z,997.28
2019-03-05T09:57:37.488Z,997.26
2019-03-05T09:58:37.462Z,997.24
2019-03-05T09:59:37.448Z,997.28
2019-03-05T10:00:37.421Z,997.27
2019-03-05T10:01:37.400Z,997.28
2019-03-05T10:02:37.383Z,997.25
2019-03-05T10:03:37.360Z,997.21
2019-03-05T10:04:37.341Z,997.22
2019-03-05T10:05:37.329Z,997.29
2019-03-05T10:06:37.303Z,997.24
2019-03-05T10:07:37.283Z,997.33
2019-03-05T10:08:37.265Z,997.34
2019-03-05T10:09:37.242Z,997.40
2019-03-05T10:10:37.221Z,997.33
2019-03-05T10:11:37.200Z,997.37
2019-03-05T10:12:37.181Z,997.43
2019-03-05T10:13:37.162Z,997.50
2019-03-05T10:14:37.140Z,997.47
2019-03-05T10:15:37.122Z,997.47
2019-03-05T10:16:37.105Z,997.44
2019-03-05T10:17:38.103Z,997.46
2019-03-05T10:18:39.294Z,997.49
2019-03-05T10:19:38.558Z,997.47
2019-03-05T10:20:37.023Z,997.63
2019-03-05T10:21:45.872Z,997.59
2019-03-05T10:22:36.984Z,997.57
2019-03-05T10:23:36.960Z,997.49
2019-03-05T10:24:36.943Z,997.57
2019-03-05T10:25:36.923Z,997.47
2019-03-05T10:26:36.914Z,997.49
2019-03-05T10:27:36.886Z,997.48
2019-03-05T10:28:36.867Z,997.49
2019-03-05T10:29:36.845Z,997.51
2019-03-05T10:30:36.828Z,997.41
2019-03-05T10:31:36.809Z,997.47
2019-03-05T10:32:36.791Z,997.44
2019-03-05T10:33:36.769Z,997.56
2019-03-05T10:34:36.761Z,997.52
2019-03-05T10:35:36.729Z,997.54
2019-03-05T10:36:36.710Z,997.49
2019-03-05T10:37:36.690Z,997.59
2019-03-05T10:38:36.671Z,997.55
2019-03-05T10:39:36.653Z,997.55
2019-03-05T10:40:36.634Z,997.56
2019-03-05T10:41:36.610Z,997.54
2019-03-05T10:42:36.591Z,997.55
2019-03-05T10:43:36.576Z,997.51
2019-03-05T10:44:36.554Z,997.55
2019-03-05T10:45:36.537Z,997.54
2019-03-05T10:46:36.514Z,997.53
2019-03-05T10:47:36.495Z,997.59
2019-03-05T10:48:36.478Z,997.60
2019-03-05T10:49:36.455Z,997.60
2019-03-05T10:50:36.435Z,997.58
2019-03-05T10:51:36.414Z,997.62
2019-03-05T10:52:36.404Z,997.71
2019-03-05T10:53:36.377Z,997.63
2019-03-05T10:54:36.359Z,997.70
2019-03-05T10:55:36.347Z,997.79
2019-03-05T10:56:36.334Z,997.76
2019-03-05T10:57:36.300Z,997.76
2019-03-05T10:58:36.282Z,997.81
2019-03-05T10:59:36.262Z,997.82
2019-03-05T11:00:36.240Z,997.77
2019-03-05T11:01:36.218Z,997.78
2019-03-05T11:02:36.198Z,997.82
2019-03-05T11:03:36.240Z,998.04
2019-03-05T11:04:45.381Z,997.86
2019-03-05T11:05:36.143Z,997.80
2019-03-05T11:06:36.125Z,997.77
2019-03-05T11:07:36.103Z,997.82
2019-03-05T11:08:36.080Z,997.81
2019-03-05T11:09:36.057Z,997.81
2019-03-05T11:10:36.044Z,997.77
2019-03-05T11:11:36.022Z,997.92
2019-03-05T11:12:36.000Z,997.85
2019-03-05T11:13:35.995Z,997.95
2019-03-05T11:14:35.958Z,997.99
2019-03-05T11:15:35.945Z,997.90
2019-03-05T11:16:35.923Z,997.96
2019-03-05T11:17:35.904Z,997.98
2019-03-05T11:18:35.882Z,997.93
2019-03-05T11:19:35.873Z,998.04
2019-03-05T11:20:35.845Z,998.00
2019-03-05T11:21:35.824Z,997.94
2019-03-05T11:22:35.809Z,997.93
2019-03-05T11:23:35.792Z,998.00
2019-03-05T11:24:35.770Z,997.87
2019-03-05T11:25:35.747Z,997.92
2019-03-05T11:26:35.726Z,997.96
2019-03-05T11:27:35.709Z,997.99
2019-03-05T11:28:35.702Z,998.06
2019-03-05T11:29:35.670Z,998.05
2019-03-05T11:30:36.584Z,998.00
2019-03-05T11:31:35.629Z,998.02
2019-03-05T11:32:35.611Z,998.07
2019-03-05T11:33:35.610Z,998.08
2019-03-05T11:34:35.575Z,998.07
2019-03-05T11:35:35.560Z,998.10
2019-03-05T11:36:35.534Z,998.12
2019-03-05T11:37:35.518Z,998.08
2019-03-05T11:38:35.497Z,998.09
2019-03-05T11:39:35.495Z,998.25
2019-03-05T11:40:35.457Z,998.26
2019-03-05T11:41:35.445Z,998.28
2019-03-05T11:42:35.422Z,998.26
2019-03-05T11:43:35.401Z,998.29
2019-03-05T11:44:35.387Z,998.24
2019-03-05T11:45:35.371Z,998.17
2019-03-05T11:46:35.356Z,998.18
2019-03-05T11:47:35.329Z,998.19
2019-03-05T11:48:35.314Z,998.19
2019-03-05T11:49:35.290Z,998.16
2019-03-05T11:50:35.274Z,998.16
2019-03-05T11:51:35.257Z,998.30
2019-03-05T11:52:35.245Z,998.24
2019-03-05T11:53:35.227Z,998.30
2019-03-05T11:54:35.199Z,998.36
2019-03-05T11:55:35.186Z,998.31
2019-03-05T11:56:35.167Z,998.36
2019-03-05T11:57:35.145Z,998.43
2019-03-05T11:58:35.134Z,998.34
2019-03-05T11:59:35.124Z,998.41
2019-03-05T12:00:35.098Z,998.36
2019-03-05T12:01:35.076Z,998.42
2019-03-05T12:02:35.069Z,998.41
2019-03-05T12:03:35.030Z,998.42
2019-03-05T12:04:35.014Z,998.46
2019-03-05T12:05:34.990Z,998.49
2019-03-05T12:06:34.976Z,998.59
2019-03-05T12:07:34.959Z,998.55
2019-03-05T12:08:34.934Z,998.54
2019-03-05T12:09:34.917Z,998.52
2019-03-05T12:10:34.908Z,998.54
2019-03-05T12:11:34.878Z,998.57
2019-03-05T12:12:34.857Z,998.56
2019-03-05T12:13:34.879Z,998.56
2019-03-05T12:14:34.819Z,998.63
2019-03-05T12:15:34.804Z,998.64
2019-03-05T12:16:34.783Z,998.66
2019-03-05T12:17:34.768Z,998.63
2019-03-05T12:18:34.750Z,998.70
2019-03-05T12:19:34.725Z,998.66
2019-03-05T12:20:34.709Z,998.75
2019-03-05T12:21:34.689Z,998.81
2019-03-05T12:22:34.671Z,998.76
2019-03-05T12:23:34.649Z,998.77
2019-03-05T12:24:34.639Z,998.69
2019-03-05T12:25:36.204Z,998.71
2019-03-05T12:26:34.596Z,998.67
2019-03-05T12:27:35.989Z,998.58
2019-03-05T12:28:34.558Z,998.63